This is the latest recevied weather packets stored in our database for station/object PY2UEP-1. If no packets are shown the sender has not sent any weather packets the latest 10 day(s).
| Time | Temp. | Humidity | Pressure | Rain* | Wind** | Luminosity | Snow |
|---|---|---|---|---|---|---|---|
| 1788063905 | 23.89° C | 71% | 1014.4 hPa | 0 mm | - | - | - |
| 1788063605 | 23.89° C | 71% | 1014.4 hPa | 0 mm | - | - | - |
| 1788063305 | 23.89° C | 73% | 1014.7 hPa | 0 mm | - | - | - |
| 1788063005 | 23.89° C | 73% | 1014.8 hPa | 0 mm | - | - | - |
| 1788062705 | 23.33° C | 73% | 1014.8 hPa | 0 mm | - | - | - |
| 1788062405 | 23.33° C | 74% | 1014.8 hPa | 0 mm | - | - | - |
| 1788062105 | 23.33° C | 74% | 1014.9 hPa | 0 mm | - | - | - |
| 1788061805 | 23.89° C | 74% | 1014.9 hPa | 0 mm | - | - | - |
| 1788061505 | 23.89° C | 74% | 1014.8 hPa | 0 mm | - | - | - |
| 1788061205 | 23.89° C | 74% | 1014.9 hPa | 0 mm | - | - | - |
| 1788060905 | 23.89° C | 74% | 1015 hPa | 0 mm | - | - | - |
| 1788060604 | 23.89° C | 73% | 1014.8 hPa | 0 mm | - | - | - |
| 1788060305 | 23.89° C | 72% | 1015 hPa | 0 mm | - | - | - |
| 1788060005 | 23.89° C | 73% | 1015 hPa | 0 mm | - | - | - |
| 1788059705 | 23.89° C | 73% | 1015 hPa | 0 mm | - | - | - |
| 1788059404 | 23.89° C | 73% | 1015 hPa | 0 mm | - | - | - |
| 1788059105 | 23.89° C | 74% | 1015.1 hPa | 0 mm | - | - | - |
| 1788058804 | 23.89° C | 74% | 1015.2 hPa | 0 mm | - | - | - |
| 1788058505 | 23.89° C | 73% | 1015.2 hPa | 0 mm | - | - | - |
| 1788058205 | 24.44° C | 72% | 1015.2 hPa | 0 mm | - | - | - |
| 1788057904 | 24.44° C | 71% | 1015.2 hPa | 0 mm | - | - | - |
| 1788057604 | 24.44° C | 70% | 1015.1 hPa | 0 mm | - | - | - |
| 1788057305 | 25° C | 68% | 1015.1 hPa | 0 mm | - | - | - |
| 1788057004 | 25.56° C | 65% | 1015.1 hPa | 0 mm | - | - | - |
| 1788056704 | 25° C | 67% | 1015.1 hPa | 0 mm | - | - | - |
* Rain since midnight (hover to see other rain measurements)
** Current wind speed in m/s (hover to see current wind gust speed)